Time;durP1;ratioP1;P1;durP2;ratioP2;P2;SDS_P1;SDS_P2;PMS_P1;PMS_P2;Temp;Humidity;BMP_temperature;BMP_pressure;BME280_temperature;BME280_humidity;BME280_pressure;Samples;Min_cycle;Max_cycle;Signal;HPM_P1;HPM_P2
2022/04/03 00:00:52;;;;;;;;;;;0.10;99.90;;;;;;5030321;28;20285;-74
2022/04/03 00:03:18;;;;;;;;;;;0.20;99.90;;;;;;5007901;28;20289;-74
2022/04/03 00:05:45;;;;;;;;;;;0.10;99.90;;;;;;5009133;28;20379;-74
2022/04/03 00:08:12;;;;;;;;;;;0.10;99.90;;;;;;5022334;28;20385;-74
2022/04/03 00:10:39;;;;;;;;;;;0.10;99.90;;;;;;5027749;28;19925;-75
2022/04/03 00:13:06;;;;;;;;;;;0.00;99.90;;;;;;5010536;28;20025;-73
2022/04/03 00:15:33;;;;;;;;;;;0.00;99.90;;;;;;5028189;28;19925;-74
2022/04/03 00:17:59;;;;;;;;;;;0.00;99.90;;;;;;5017147;28;20292;-74
2022/04/03 00:20:26;;;;;;;;;;;-0.10;99.90;;;;;;5016224;28;19925;-73
2022/04/03 00:22:52;;;;;;;;;;;-0.10;99.90;;;;;;5025428;28;19952;-74
2022/04/03 00:25:19;;;;;;;;;;;-0.10;99.90;;;;;;5031250;28;19925;-74
2022/04/03 00:27:45;;;;;;;;;;;-0.10;99.90;;;;;;5027958;28;19940;-74
2022/04/03 00:30:12;;;;;;;;;;;-0.10;99.90;;;;;;5029165;28;19925;-74
2022/04/03 00:32:38;;;;;;;;;;;-0.10;99.90;;;;;;5010888;28;19925;-75
2022/04/03 00:35:05;;;;;;;;;;;-0.10;99.90;;;;;;5024815;28;19932;-75
2022/04/03 00:37:32;;;;;;;;;;;-0.20;99.90;;;;;;5020245;28;19975;-74
2022/04/03 00:39:58;;;;;;;;;;;-0.10;99.90;;;;;;5021507;28;19984;-75
2022/04/03 00:42:25;;;;;;;;;;;-0.20;99.90;;;;;;5030020;28;20296;-73
2022/04/03 00:44:51;;;;;;;;;;;-0.20;99.90;;;;;;5017424;28;20812;-74
2022/04/03 00:47:18;;;;;;;;;;;-0.10;99.90;;;;;;5024075;28;20261;-74
2022/04/03 00:49:44;;;;;;;;;;;-0.10;99.90;;;;;;5019588;28;20405;-75
2022/04/03 00:52:11;;;;;;;;;;;-0.10;99.90;;;;;;5025273;28;19932;-78
2022/04/03 00:54:37;;;;;;;;;;;-0.10;99.90;;;;;;5012707;28;19929;-75
2022/04/03 00:57:04;;;;;;;;;;;-0.10;99.90;;;;;;5000303;28;19925;-75
2022/04/03 00:59:31;;;;;;;;;;;-0.10;99.90;;;;;;5012088;28;19972;-79
2022/04/03 01:01:57;;;;;;;;;;;-0.10;99.90;;;;;;5024212;28;19929;-75
2022/04/03 01:04:24;;;;;;;;;;;-0.10;99.90;;;;;;5004612;28;19932;-75
2022/04/03 01:06:50;;;;;;;;;;;-0.10;99.90;;;;;;5028341;28;20801;-75
2022/04/03 01:09:17;;;;;;;;;;;0.00;99.90;;;;;;5030608;28;19936;-75
2022/04/03 01:11:43;;;;;;;;;;;-0.10;99.90;;;;;;5024056;28;19932;-74
2022/04/03 01:14:10;;;;;;;;;;;-0.10;99.90;;;;;;5019706;28;19925;-76
2022/04/03 01:16:38;;;;;;;;;;;-0.10;99.90;;;;;;5028108;28;19929;-75
2022/04/03 01:19:04;;;;;;;;;;;-0.10;99.90;;;;;;5017802;28;19931;-76
2022/04/03 01:21:31;;;;;;;;;;;-0.10;99.90;;;;;;5027461;28;19925;-80
2022/04/03 01:23:58;;;;;;;;;;;-0.10;99.90;;;;;;5011248;28;19929;-75
2022/04/03 01:26:24;;;;;;;;;;;-0.10;99.90;;;;;;5011989;28;19933;-75
2022/04/03 01:28:51;;;;;;;;;;;-0.10;99.90;;;;;;5013669;28;19933;-76
2022/04/03 01:31:18;;;;;;;;;;;-0.20;99.90;;;;;;5024237;28;20435;-79
2022/04/03 01:33:44;;;;;;;;;;;-0.20;99.90;;;;;;5031257;28;19925;-75
2022/04/03 01:36:11;;;;;;;;;;;-0.10;99.90;;;;;;5032070;28;19932;-75
2022/04/03 01:38:37;;;;;;;;;;;-0.10;99.90;;;;;;5024879;28;19939;-76
2022/04/03 01:41:04;;;;;;;;;;;-0.10;99.90;;;;;;5023293;28;19929;-75
2022/04/03 01:43:30;;;;;;;;;;;-0.10;99.90;;;;;;5027222;28;19926;-76
2022/04/03 01:45:57;;;;;;;;;;;-0.10;99.90;;;;;;5022839;28;19936;-75
2022/04/03 01:48:24;;;;;;;;;;;-0.10;99.90;;;;;;5025659;28;19925;-75
2022/04/03 01:50:50;;;;;;;;;;;-0.10;99.90;;;;;;5023311;28;20395;-75
2022/04/03 01:53:17;;;;;;;;;;;-0.10;99.90;;;;;;5032782;28;20384;-76
2022/04/03 01:55:43;;;;;;;;;;;0.00;99.90;;;;;;5033087;28;20393;-75
2022/04/03 01:58:10;;;;;;;;;;;-0.10;99.90;;;;;;5023455;28;19924;-75
2022/04/03 02:00:36;;;;;;;;;;;-0.10;99.90;;;;;;5024593;28;19926;-80
2022/04/03 02:03:03;;;;;;;;;;;-0.10;99.90;;;;;;5014995;28;19944;-75
2022/04/03 02:05:29;;;;;;;;;;;-0.10;99.90;;;;;;5019281;28;19925;-75
2022/04/03 02:07:56;;;;;;;;;;;-0.20;99.90;;;;;;5016296;28;19929;-75
2022/04/03 02:10:22;;;;;;;;;;;-0.20;99.90;;;;;;5027854;28;19925;-75
2022/04/03 02:12:49;;;;;;;;;;;-0.10;99.90;;;;;;5016249;28;19926;-75
2022/04/03 02:15:15;;;;;;;;;;;-0.10;99.90;;;;;;5026144;28;19929;-75
2022/04/03 02:17:42;;;;;;;;;;;-0.20;99.90;;;;;;5034190;28;19929;-76
2022/04/03 02:20:10;;;;;;;;;;;-0.20;99.90;;;;;;5021778;28;19925;-75
2022/04/03 02:22:36;;;;;;;;;;;-0.10;99.90;;;;;;5031502;28;19984;-79
2022/04/03 02:25:04;;;;;;;;;;;-0.20;99.90;;;;;;5026963;28;19964;-74
2022/04/03 02:27:31;;;;;;;;;;;-0.20;99.90;;;;;;5032883;28;19925;-77
2022/04/03 02:29:58;;;;;;;;;;;-0.10;99.90;;;;;;5012837;28;20003;-75
2022/04/03 02:32:25;;;;;;;;;;;-0.20;99.90;;;;;;5023227;28;20270;-74
2022/04/03 02:34:52;;;;;;;;;;;-0.20;99.90;;;;;;5027692;28;20022;-74
2022/04/03 02:37:18;;;;;;;;;;;-0.10;99.90;;;;;;5009802;28;19929;-74
2022/04/03 02:39:45;;;;;;;;;;;0.00;99.90;;;;;;5023069;28;19932;-74
2022/04/03 02:42:11;;;;;;;;;;;0.00;99.90;;;;;;5025786;28;19925;-75
2022/04/03 02:44:38;;;;;;;;;;;0.00;99.90;;;;;;5024303;28;19936;-79
2022/04/03 02:47:05;;;;;;;;;;;0.10;99.90;;;;;;5003911;28;19925;-75
2022/04/03 02:49:31;;;;;;;;;;;0.10;99.90;;;;;;5022325;28;19933;-77
2022/04/03 02:51:58;;;;;;;;;;;0.20;99.90;;;;;;5021948;28;19929;-75
2022/04/03 02:54:24;;;;;;;;;;;0.20;99.90;;;;;;5016419;28;19932;-74
2022/04/03 02:56:51;;;;;;;;;;;0.20;99.90;;;;;;5017529;28;19940;-74
2022/04/03 02:59:17;;;;;;;;;;;0.30;99.90;;;;;;5019634;28;19955;-75
2022/04/03 03:01:44;;;;;;;;;;;0.40;99.90;;;;;;5023508;28;20379;-75
2022/04/03 03:04:10;;;;;;;;;;;0.50;99.90;;;;;;5016467;28;19932;-75
2022/04/03 03:06:37;;;;;;;;;;;0.50;99.90;;;;;;5028792;28;19925;-73
2022/04/03 03:09:03;;;;;;;;;;;0.60;99.90;;;;;;5021595;28;19925;-74
2022/04/03 03:11:30;;;;;;;;;;;0.60;99.90;;;;;;5031511;28;20361;-75
2022/04/03 03:13:56;;;;;;;;;;;0.80;99.90;;;;;;5008933;28;19926;-78
2022/04/03 03:16:23;;;;;;;;;;;0.80;99.90;;;;;;5003744;28;20287;-74
2022/04/03 03:18:50;;;;;;;;;;;0.80;99.90;;;;;;5015701;28;20376;-75
2022/04/03 03:21:16;;;;;;;;;;;0.70;99.90;;;;;;5019917;28;19932;-75
2022/04/03 03:23:43;;;;;;;;;;;0.80;99.90;;;;;;5020050;28;20427;-79
2022/04/03 03:26:09;;;;;;;;;;;0.80;99.90;;;;;;5024524;28;19932;-74
2022/04/03 03:28:36;;;;;;;;;;;0.80;99.90;;;;;;5003161;28;19932;-74
2022/04/03 03:31:02;;;;;;;;;;;0.70;99.90;;;;;;5023399;28;19927;-75
2022/04/03 03:33:29;;;;;;;;;;;0.80;99.90;;;;;;5016206;28;19929;-76
2022/04/03 03:35:56;;;;;;;;;;;0.80;99.90;;;;;;5023751;28;19932;-75
2022/04/03 03:38:22;;;;;;;;;;;0.80;99.90;;;;;;5030388;28;19973;-75
2022/04/03 03:40:49;;;;;;;;;;;0.80;99.90;;;;;;5013138;28;19929;-75
2022/04/03 03:43:15;;;;;;;;;;;0.80;99.90;;;;;;5027741;28;19932;-75
2022/04/03 03:45:42;;;;;;;;;;;0.80;99.90;;;;;;5026809;28;19929;-79
2022/04/03 03:48:08;;;;;;;;;;;0.80;99.90;;;;;;5024320;28;19935;-75
2022/04/03 03:50:35;;;;;;;;;;;0.80;99.90;;;;;;5020704;28;19929;-75
2022/04/03 03:53:01;;;;;;;;;;;0.80;99.90;;;;;;5018869;28;19936;-75
2022/04/03 03:55:28;;;;;;;;;;;0.80;99.90;;;;;;5029312;28;20385;-75
2022/04/03 03:57:55;;;;;;;;;;;0.80;99.90;;;;;;5026676;28;19973;-75
2022/04/03 04:00:21;;;;;;;;;;;0.90;99.90;;;;;;5030132;28;19925;-77
2022/04/03 04:02:48;;;;;;;;;;;0.90;99.90;;;;;;4998447;28;19925;-75
2022/04/03 04:05:14;;;;;;;;;;;0.90;99.90;;;;;;5012979;28;19932;-75
2022/04/03 04:07:41;;;;;;;;;;;1.00;99.90;;;;;;5027888;28;19925;-75
2022/04/03 04:10:08;;;;;;;;;;;1.00;99.90;;;;;;5021136;28;19925;-74
2022/04/03 04:12:34;;;;;;;;;;;1.00;99.90;;;;;;5018162;28;19925;-75
2022/04/03 04:15:01;;;;;;;;;;;1.00;99.90;;;;;;5003606;28;19929;-75
2022/04/03 04:17:27;;;;;;;;;;;1.10;99.90;;;;;;4995839;28;19926;-73
2022/04/03 04:19:54;;;;;;;;;;;1.10;99.90;;;;;;5024585;28;20328;-76
2022/04/03 04:22:20;;;;;;;;;;;1.10;99.90;;;;;;5030784;28;20369;-74
2022/04/03 04:24:47;;;;;;;;;;;1.10;99.90;;;;;;5027355;28;19932;-78
2022/04/03 04:27:13;;;;;;;;;;;1.10;99.90;;;;;;5003391;28;19929;-74
2022/04/03 04:29:40;;;;;;;;;;;1.10;99.90;;;;;;5019719;28;20004;-74
2022/04/03 04:32:07;;;;;;;;;;;1.10;99.90;;;;;;5012174;28;19933;-74
2022/04/03 04:34:34;;;;;;;;;;;1.30;99.90;;;;;;5020643;28;19925;-75
2022/04/03 04:37:00;;;;;;;;;;;1.50;99.90;;;;;;5025227;28;19933;-74
2022/04/03 04:39:27;;;;;;;;;;;1.50;99.90;;;;;;5021473;28;19960;-74
2022/04/03 04:41:53;;;;;;;;;;;1.50;99.90;;;;;;5024451;28;19948;-75
2022/04/03 04:44:20;;;;;;;;;;;1.40;99.90;;;;;;5027351;28;19929;-74
2022/04/03 04:46:47;;;;;;;;;;;1.30;99.90;;;;;;5010879;28;19925;-77
2022/04/03 04:49:14;;;;;;;;;;;1.30;99.90;;;;;;5027677;28;20015;-74
2022/04/03 04:51:41;;;;;;;;;;;1.30;99.90;;;;;;5022173;28;19929;-74
2022/04/03 04:54:08;;;;;;;;;;;1.40;99.90;;;;;;5029382;28;20165;-75
2022/04/03 04:56:35;;;;;;;;;;;1.40;99.90;;;;;;5024799;28;20292;-75
2022/04/03 04:59:02;;;;;;;;;;;1.40;99.90;;;;;;5025846;28;19947;-77
2022/04/03 05:01:28;;;;;;;;;;;1.40;99.90;;;;;;5023194;28;20297;-74
2022/04/03 05:03:55;;;;;;;;;;;1.30;99.90;;;;;;5021302;28;19932;-75
2022/04/03 05:06:23;;;;;;;;;;;1.30;99.90;;;;;;5013939;28;19929;-74
2022/04/03 05:08:50;;;;;;;;;;;1.40;99.90;;;;;;5029645;28;20369;-77
2022/04/03 05:11:16;;;;;;;;;;;1.30;99.90;;;;;;5031633;28;19925;-74
2022/04/03 05:13:43;;;;;;;;;;;1.30;99.90;;;;;;5018780;28;19926;-75
2022/04/03 05:16:09;;;;;;;;;;;1.30;99.90;;;;;;5012990;28;20080;-75
2022/04/03 05:18:36;;;;;;;;;;;1.40;99.90;;;;;;5029742;28;19948;-75
2022/04/03 05:21:04;;;;;;;;;;;1.40;99.90;;;;;;5008290;28;19925;-75
2022/04/03 05:23:31;;;;;;;;;;;1.40;99.90;;;;;;5033916;28;19925;-74
2022/04/03 05:25:57;;;;;;;;;;;1.40;99.90;;;;;;5029655;28;19931;-75
2022/04/03 05:28:24;;;;;;;;;;;1.40;99.90;;;;;;5013857;28;19925;-75
2022/04/03 05:30:50;;;;;;;;;;;1.40;99.90;;;;;;5021679;28;19929;-78
2022/04/03 05:33:17;;;;;;;;;;;1.40;99.90;;;;;;5029355;28;19933;-74
2022/04/03 05:35:43;;;;;;;;;;;1.30;99.90;;;;;;5005282;28;19925;-76
2022/04/03 05:38:10;;;;;;;;;;;1.30;99.90;;;;;;5001584;28;19925;-73
2022/04/03 05:40:38;;;;;;;;;;;1.40;99.90;;;;;;5025857;28;19933;-73
2022/04/03 05:43:04;;;;;;;;;;;1.40;99.90;;;;;;5022323;28;19955;-74
2022/04/03 05:45:31;;;;;;;;;;;1.40;99.90;;;;;;5028277;28;20308;-74
2022/04/03 05:47:57;;;;;;;;;;;1.30;99.90;;;;;;5012337;28;19948;-75
2022/04/03 05:50:24;;;;;;;;;;;1.30;99.90;;;;;;5024156;28;19955;-74
2022/04/03 05:52:50;;;;;;;;;;;1.40;99.90;;;;;;5027220;28;19933;-76
2022/04/03 05:55:17;;;;;;;;;;;1.60;99.90;;;;;;5017758;28;19939;-74
2022/04/03 05:57:44;;;;;;;;;;;1.70;99.90;;;;;;5019971;28;19987;-74
2022/04/03 06:00:12;;;;;;;;;;;1.80;99.90;;;;;;5003666;28;19933;-75
2022/04/03 06:02:38;;;;;;;;;;;1.80;99.90;;;;;;5013939;28;19952;-74
2022/04/03 06:05:05;;;;;;;;;;;1.80;99.90;;;;;;4996078;28;19925;-74
2022/04/03 06:07:32;;;;;;;;;;;1.80;99.90;;;;;;5016448;28;19926;-75
2022/04/03 06:09:59;;;;;;;;;;;1.80;99.90;;;;;;4998527;28;20012;-75
2022/04/03 06:12:25;;;;;;;;;;;1.70;99.90;;;;;;5005266;28;19991;-74
2022/04/03 06:14:52;;;;;;;;;;;1.70;99.90;;;;;;4999045;28;20372;-74
2022/04/03 06:17:18;;;;;;;;;;;1.70;99.90;;;;;;5014665;28;20258;-74
2022/04/03 06:19:45;;;;;;;;;;;1.60;99.90;;;;;;5014219;28;20293;-75
2022/04/03 06:22:11;;;;;;;;;;;1.60;99.90;;;;;;5002050;28;20284;-74
2022/04/03 06:24:38;;;;;;;;;;;1.50;99.90;;;;;;5014848;28;19926;-74
2022/04/03 06:27:04;;;;;;;;;;;1.50;99.90;;;;;;4996899;28;19925;-74
2022/04/03 06:29:31;;;;;;;;;;;1.60;99.90;;;;;;4999840;28;19926;-74
2022/04/03 06:31:58;;;;;;;;;;;1.50;99.90;;;;;;4999035;28;19932;-75
2022/04/03 06:34:25;;;;;;;;;;;1.60;99.90;;;;;;5017439;28;20373;-75
2022/04/03 06:36:51;;;;;;;;;;;1.80;99.90;;;;;;5020214;28;19933;-74
2022/04/03 06:39:18;;;;;;;;;;;2.00;99.90;;;;;;5000274;28;19926;-74
2022/04/03 06:41:44;;;;;;;;;;;2.30;99.90;;;;;;5002577;28;19933;-75
2022/04/03 06:44:12;;;;;;;;;;;2.50;99.90;;;;;;4998357;28;20411;-75
2022/04/03 06:46:38;;;;;;;;;;;2.80;99.90;;;;;;4999564;28;20060;-75
2022/04/03 06:49:05;;;;;;;;;;;3.10;99.90;;;;;;5003462;28;20411;-75
2022/04/03 06:51:31;;;;;;;;;;;3.30;99.90;;;;;;5017379;28;19926;-74
2022/04/03 06:53:58;;;;;;;;;;;3.50;99.90;;;;;;4995500;28;19956;-79
2022/04/03 06:56:24;;;;;;;;;;;3.80;99.90;;;;;;5003806;28;19937;-76
2022/04/03 06:58:51;;;;;;;;;;;4.00;99.90;;;;;;5015337;28;19933;-75
2022/04/03 07:01:18;;;;;;;;;;;4.20;99.90;;;;;;5003574;28;20547;-75
2022/04/03 07:03:46;;;;;;;;;;;4.40;99.90;;;;;;5001216;28;19939;-75
2022/04/03 07:06:13;;;;;;;;;;;4.50;99.90;;;;;;5018100;28;19932;-74
2022/04/03 07:08:39;;;;;;;;;;;4.80;99.90;;;;;;5000052;28;19925;-76
2022/04/03 07:11:06;;;;;;;;;;;5.00;99.90;;;;;;5016422;28;19925;-76
2022/04/03 07:13:32;;;;;;;;;;;5.10;99.90;;;;;;5015606;28;19999;-75
2022/04/03 07:15:59;;;;;;;;;;;5.20;99.90;;;;;;5004630;28;20723;-79
2022/04/03 07:18:25;;;;;;;;;;;5.20;99.90;;;;;;5020808;28;20245;-75
2022/04/03 07:20:52;;;;;;;;;;;5.20;99.90;;;;;;4998196;28;19925;-75
2022/04/03 07:23:22;;;;;;;;;;;5.30;99.90;;;;;;4998004;28;19932;-76
2022/04/03 07:25:48;;;;;;;;;;;5.50;99.90;;;;;;5018145;28;19925;-74
2022/04/03 07:28:15;;;;;;;;;;;5.60;99.90;;;;;;4995605;28;19925;-75
2022/04/03 07:30:42;;;;;;;;;;;5.80;99.90;;;;;;5013113;28;19926;-76
2022/04/03 07:33:08;;;;;;;;;;;5.90;99.90;;;;;;5001806;28;19977;-75
2022/04/03 07:35:37;;;;;;;;;;;5.60;99.90;;;;;;5018538;28;20084;-75
2022/04/03 07:38:03;;;;;;;;;;;5.50;99.90;;;;;;5014925;28;19929;-75
2022/04/03 07:40:30;;;;;;;;;;;5.50;99.90;;;;;;5012805;28;20609;-75
2022/04/03 07:42:57;;;;;;;;;;;5.30;99.90;;;;;;5023032;28;19979;-76
2022/04/03 07:45:23;;;;;;;;;;;5.20;99.90;;;;;;5020238;28;19932;-79
2022/04/03 07:47:50;;;;;;;;;;;5.30;99.90;;;;;;5002745;28;19929;-76
2022/04/03 07:50:16;;;;;;;;;;;5.20;99.90;;;;;;5018215;28;19929;-76
2022/04/03 07:52:43;;;;;;;;;;;5.20;99.90;;;;;;5018998;28;19933;-76
2022/04/03 07:55:10;;;;;;;;;;;5.10;99.90;;;;;;4999038;28;19936;-75
2022/04/03 07:57:37;;;;;;;;;;;5.00;99.90;;;;;;5012475;28;19929;-75
2022/04/03 08:00:06;;;;;;;;;;;5.00;99.90;;;;;;5008413;28;19948;-76
2022/04/03 08:02:33;;;;;;;;;;;5.10;99.90;;;;;;5012299;28;19945;-76
2022/04/03 08:04:59;;;;;;;;;;;5.10;99.90;;;;;;5017749;28;19936;-75
2022/04/03 08:07:26;;;;;;;;;;;5.30;99.90;;;;;;5001875;28;19939;-77
2022/04/03 08:09:52;;;;;;;;;;;5.30;99.90;;;;;;5013948;28;19926;-76
2022/04/03 08:12:19;;;;;;;;;;;5.40;99.90;;;;;;5015459;28;19929;-75
2022/04/03 08:14:47;;;;;;;;;;;5.40;99.90;;;;;;5003998;28;19929;-76
2022/04/03 08:17:14;;;;;;;;;;;5.40;99.90;;;;;;5011041;28;19948;-78
2022/04/03 08:19:40;;;;;;;;;;;5.40;99.90;;;;;;5015921;28;20705;-75
2022/04/03 08:22:07;;;;;;;;;;;5.50;99.90;;;;;;4992452;28;20020;-76
2022/04/03 08:24:33;;;;;;;;;;;5.40;99.90;;;;;;5008378;28;19929;-76
2022/04/03 08:27:00;;;;;;;;;;;5.40;99.90;;;;;;5016837;28;19933;-75
2022/04/03 08:29:26;;;;;;;;;;;5.40;99.90;;;;;;5011588;28;19929;-75
2022/04/03 08:31:53;;;;;;;;;;;5.40;99.90;;;;;;5016191;28;19929;-75
2022/04/03 08:34:19;;;;;;;;;;;5.40;99.90;;;;;;4994417;28;19929;-79
2022/04/03 08:36:46;;;;;;;;;;;5.40;99.90;;;;;;4995197;28;19930;-79
2022/04/03 08:39:13;;;;;;;;;;;5.50;99.90;;;;;;5010550;28;20015;-75
2022/04/03 08:41:39;;;;;;;;;;;5.50;99.90;;;;;;5020154;28;19936;-75
2022/04/03 08:44:07;;;;;;;;;;;5.70;99.90;;;;;;4994093;28;19936;-80
2022/04/03 08:46:34;;;;;;;;;;;5.70;99.90;;;;;;5001219;28;19930;-75
2022/04/03 08:49:01;;;;;;;;;;;5.80;99.90;;;;;;5015700;28;19931;-75
2022/04/03 08:51:27;;;;;;;;;;;5.80;99.90;;;;;;5017327;28;19929;-75
2022/04/03 08:53:54;;;;;;;;;;;5.80;99.90;;;;;;5016520;28;19929;-76
2022/04/03 08:56:20;;;;;;;;;;;5.80;99.90;;;;;;5015271;28;19929;-76
2022/04/03 08:58:47;;;;;;;;;;;5.70;99.90;;;;;;5013552;28;19936;-78
2022/04/03 09:01:16;;;;;;;;;;;5.80;99.90;;;;;;5013442;28;19929;-75
2022/04/03 09:03:42;;;;;;;;;;;5.80;99.90;;;;;;5021725;28;19936;-76
2022/04/03 09:06:09;;;;;;;;;;;6.00;99.90;;;;;;5015465;28;19933;-79
2022/04/03 09:08:36;;;;;;;;;;;6.30;99.90;;;;;;5013341;28;19929;-75
2022/04/03 09:11:03;;;;;;;;;;;6.50;99.90;;;;;;5021686;28;19933;-76
2022/04/03 09:13:29;;;;;;;;;;;6.70;99.90;;;;;;5020608;28;20803;-76
2022/04/03 09:15:56;;;;;;;;;;;6.80;99.90;;;;;;5011757;28;20012;-76
2022/04/03 09:18:23;;;;;;;;;;;7.00;99.90;;;;;;5014838;28;19934;-76
2022/04/03 09:20:49;;;;;;;;;;;7.00;99.90;;;;;;5005452;28;19928;-76
2022/04/03 09:23:16;;;;;;;;;;;7.00;99.90;;;;;;5021762;28;19926;-78
2022/04/03 09:25:43;;;;;;;;;;;7.20;99.90;;;;;;5017820;28;20460;-76
2022/04/03 09:28:11;;;;;;;;;;;7.10;99.90;;;;;;5011651;28;19956;-79
2022/04/03 09:30:37;;;;;;;;;;;7.10;99.90;;;;;;5015301;28;19929;-75
2022/04/03 09:33:04;;;;;;;;;;;7.20;99.90;;;;;;5015978;28;19936;-76
2022/04/03 09:35:31;;;;;;;;;;;7.10;99.90;;;;;;5019586;28;19936;-76
2022/04/03 09:37:57;;;;;;;;;;;7.00;99.90;;;;;;5015712;28;19925;-77
2022/04/03 09:40:24;;;;;;;;;;;6.80;99.90;;;;;;5009155;28;19926;-76
2022/04/03 09:42:50;;;;;;;;;;;6.60;99.90;;;;;;5027024;28;19929;-75
2022/04/03 09:45:17;;;;;;;;;;;6.60;99.90;;;;;;5017885;28;20285;-77
2022/04/03 09:47:44;;;;;;;;;;;6.60;99.90;;;;;;5021788;28;20018;-75
2022/04/03 09:50:10;;;;;;;;;;;6.80;99.90;;;;;;5015637;28;19933;-79
2022/04/03 09:52:37;;;;;;;;;;;7.10;99.90;;;;;;5006304;28;19932;-75
2022/04/03 09:55:03;;;;;;;;;;;7.40;99.90;;;;;;4997654;28;19926;-76
2022/04/03 09:57:30;;;;;;;;;;;7.30;99.90;;;;;;5017298;28;19929;-75
2022/04/03 09:59:57;;;;;;;;;;;7.00;99.90;;;;;;5021794;28;19929;-77
2022/04/03 10:02:24;;;;;;;;;;;7.10;99.90;;;;;;5023765;28;19960;-75
2022/04/03 10:04:50;;;;;;;;;;;7.30;99.90;;;;;;5016738;28;19933;-77
2022/04/03 10:07:17;;;;;;;;;;;7.50;99.90;;;;;;5019335;28;20487;-76
2022/04/03 10:09:44;;;;;;;;;;;7.70;99.90;;;;;;5007001;28;20377;-76
2022/04/03 10:12:10;;;;;;;;;;;7.80;99.90;;;;;;5006433;28;19929;-76
2022/04/03 10:14:37;;;;;;;;;;;7.80;99.90;;;;;;5012709;28;19971;-76
2022/04/03 10:17:03;;;;;;;;;;;7.80;99.90;;;;;;5022990;28;19933;-78
2022/04/03 10:19:30;;;;;;;;;;;8.00;99.90;;;;;;5024616;28;19936;-79
2022/04/03 10:21:56;;;;;;;;;;;8.20;99.00;;;;;;5004486;28;19929;-77
2022/04/03 10:24:23;;;;;;;;;;;8.30;99.20;;;;;;5027483;28;19933;-76
2022/04/03 10:26:50;;;;;;;;;;;8.50;97.50;;;;;;5018343;28;20375;-77
2022/04/03 10:29:17;;;;;;;;;;;8.40;97.40;;;;;;5019309;28;19929;-77
2022/04/03 10:31:43;;;;;;;;;;;8.10;97.10;;;;;;5021770;28;19941;-75
2022/04/03 10:34:10;;;;;;;;;;;8.20;98.20;;;;;;5011199;28;20032;-75
2022/04/03 10:36:37;;;;;;;;;;;8.40;99.50;;;;;;5023403;28;19937;-75
2022/04/03 10:39:04;;;;;;;;;;;8.00;97.80;;;;;;5011889;28;19929;-76
2022/04/03 10:41:31;;;;;;;;;;;7.80;98.00;;;;;;5007005;28;19940;-75
2022/04/03 10:43:57;;;;;;;;;;;7.90;97.10;;;;;;5022820;28;19933;-74
2022/04/03 10:46:24;;;;;;;;;;;7.50;98.30;;;;;;5022397;28;19929;-75
2022/04/03 10:48:50;;;;;;;;;;;7.70;99.30;;;;;;5010915;28;19944;-75
2022/04/03 10:51:17;;;;;;;;;;;7.90;99.90;;;;;;5000810;28;19929;-76
2022/04/03 10:53:44;;;;;;;;;;;8.10;99.60;;;;;;5018099;28;19936;-75
2022/04/03 10:56:10;;;;;;;;;;;8.20;99.90;;;;;;5011447;28;19926;-75
2022/04/03 10:58:37;;;;;;;;;;;8.30;99.90;;;;;;5018285;28;19932;-75
2022/04/03 11:01:03;;;;;;;;;;;8.50;99.90;;;;;;5013509;28;19939;-75
2022/04/03 11:03:30;;;;;;;;;;;8.60;99.50;;;;;;5026967;28;19943;-75
2022/04/03 11:05:56;;;;;;;;;;;8.60;98.20;;;;;;5010919;28;19952;-76
2022/04/03 11:08:23;;;;;;;;;;;8.60;96.40;;;;;;5010003;28;19977;-75
2022/04/03 11:10:49;;;;;;;;;;;8.70;96.30;;;;;;5018678;28;20689;-74
2022/04/03 11:13:16;;;;;;;;;;;8.80;94.50;;;;;;5020786;28;19933;-78
2022/04/03 11:15:43;;;;;;;;;;;9.00;95.10;;;;;;5014115;28;20395;-74
2022/04/03 11:18:09;;;;;;;;;;;8.90;94.80;;;;;;5016107;28;19932;-75
2022/04/03 11:20:36;;;;;;;;;;;8.70;95.30;;;;;;5021961;28;19925;-75
2022/04/03 11:23:02;;;;;;;;;;;8.90;95.50;;;;;;5007902;28;19944;-75
2022/04/03 11:25:29;;;;;;;;;;;8.90;94.90;;;;;;5030838;28;19959;-75
2022/04/03 11:27:55;;;;;;;;;;;9.10;94.80;;;;;;5008078;28;20265;-75
2022/04/03 11:30:22;;;;;;;;;;;8.90;93.60;;;;;;5021638;28;20284;-76
2022/04/03 11:32:48;;;;;;;;;;;8.90;94.60;;;;;;5025525;28;19925;-76
2022/04/03 11:35:15;;;;;;;;;;;9.20;94.00;;;;;;4998013;28;19930;-75
2022/04/03 11:37:42;;;;;;;;;;;9.20;92.20;;;;;;5029207;28;19932;-81
2022/04/03 11:40:09;;;;;;;;;;;9.20;90.80;;;;;;5008840;28;20288;-84
2022/04/03 11:42:35;;;;;;;;;;;9.40;92.00;;;;;;5025563;28;20284;-87
2022/04/03 11:45:02;;;;;;;;;;;9.50;92.70;;;;;;5013971;28;20288;-89
2022/04/03 11:47:29;;;;;;;;;;;9.20;96.20;;;;;;5006215;28;20017;-92
2022/04/03 11:49:56;;;;;;;;;;;8.90;97.50;;;;;;5016064;28;20384;-86
2022/04/03 11:52:23;;;;;;;;;;;8.90;97.60;;;;;;5023760;28;19929;-80
2022/04/03 11:54:49;;;;;;;;;;;8.70;98.80;;;;;;5025116;28;19926;-78
2022/04/03 11:57:16;;;;;;;;;;;8.50;98.70;;;;;;5025828;28;20323;-78
2022/04/03 11:59:43;;;;;;;;;;;8.30;99.90;;;;;;5025886;28;20296;-82
2022/04/03 12:02:10;;;;;;;;;;;8.20;99.40;;;;;;5012875;28;19929;-78
2022/04/03 12:04:36;;;;;;;;;;;8.30;99.90;;;;;;5015660;28;19952;-77
2022/04/03 12:07:03;;;;;;;;;;;8.50;99.00;;;;;;5024875;28;20379;-78
2022/04/03 12:09:29;;;;;;;;;;;8.70;96.20;;;;;;5010709;28;19925;-79
2022/04/03 12:11:58;;;;;;;;;;;8.90;95.10;;;;;;5017630;28;19991;-79
2022/04/03 12:14:24;;;;;;;;;;;8.70;95.70;;;;;;5014638;28;19935;-80
2022/04/03 12:16:51;;;;;;;;;;;8.70;96.20;;;;;;5022515;28;19929;-81
2022/04/03 12:19:20;;;;;;;;;;;8.60;95.90;;;;;;5031186;28;19932;-79
2022/04/03 12:21:47;;;;;;;;;;;8.60;96.00;;;;;;5018436;28;19929;-80
2022/04/03 12:24:13;;;;;;;;;;;8.30;95.60;;;;;;5022410;28;19925;-81
2022/04/03 12:26:40;;;;;;;;;;;8.30;95.40;;;;;;5005089;28;19932;-80
2022/04/03 12:29:07;;;;;;;;;;;8.30;94.80;;;;;;5008835;28;19933;-79
2022/04/03 12:31:35;;;;;;;;;;;8.20;94.70;;;;;;5022145;28;20224;-79
2022/04/03 12:34:02;;;;;;;;;;;8.30;94.80;;;;;;5018386;28;19926;-78
2022/04/03 12:36:28;;;;;;;;;;;8.30;95.00;;;;;;5009374;28;19929;-79
2022/04/03 12:38:55;;;;;;;;;;;8.40;95.00;;;;;;5010039;28;19926;-77
2022/04/03 12:41:21;;;;;;;;;;;8.50;94.80;;;;;;5025146;28;19925;-76
2022/04/03 12:43:48;;;;;;;;;;;8.60;94.00;;;;;;5020717;28;19925;-79
2022/04/03 12:46:14;;;;;;;;;;;8.70;93.30;;;;;;5013371;28;19929;-77
2022/04/03 12:48:42;;;;;;;;;;;8.90;93.10;;;;;;5030043;28;19925;-77
2022/04/03 12:51:09;;;;;;;;;;;9.00;93.20;;;;;;5020684;28;20377;-78
2022/04/03 12:53:36;;;;;;;;;;;9.10;93.10;;;;;;5019002;28;19933;-76
2022/04/03 12:56:02;;;;;;;;;;;9.20;91.50;;;;;;5013920;28;19933;-76
2022/04/03 12:58:30;;;;;;;;;;;9.20;92.90;;;;;;5005206;28;19929;-76
2022/04/03 13:00:57;;;;;;;;;;;9.00;92.70;;;;;;5018829;28;20343;-76
2022/04/03 13:03:24;;;;;;;;;;;8.90;92.20;;;;;;5028476;28;20277;-77
2022/04/03 13:05:50;;;;;;;;;;;8.50;92.40;;;;;;5001201;28;19941;-76
2022/04/03 13:08:17;;;;;;;;;;;8.40;92.40;;;;;;5026216;28;19925;-77
2022/04/03 13:10:44;;;;;;;;;;;8.30;95.10;;;;;;5027390;28;19929;-82
2022/04/03 13:13:10;;;;;;;;;;;8.30;96.70;;;;;;5026675;28;19925;-80
2022/04/03 13:15:37;;;;;;;;;;;8.10;97.50;;;;;;5009780;28;19961;-79
2022/04/03 13:18:04;;;;;;;;;;;8.20;97.50;;;;;;5003311;28;20361;-79
2022/04/03 13:20:30;;;;;;;;;;;8.20;96.50;;;;;;5020877;28;20007;-80
2022/04/03 13:22:57;;;;;;;;;;;8.50;93.80;;;;;;5017315;28;19945;-80
2022/04/03 13:25:23;;;;;;;;;;;8.60;92.80;;;;;;5016489;28;19925;-79
2022/04/03 13:27:50;;;;;;;;;;;8.60;93.10;;;;;;5011473;28;19926;-83
2022/04/03 13:30:17;;;;;;;;;;;8.70;93.90;;;;;;5032965;28;19925;-83
2022/04/03 13:32:45;;;;;;;;;;;8.60;94.10;;;;;;5032402;28;19933;-84
2022/04/03 13:35:12;;;;;;;;;;;8.50;95.20;;;;;;5031611;28;19929;-81
2022/04/03 13:37:38;;;;;;;;;;;8.40;96.00;;;;;;5006934;28;19926;-82
2022/04/03 13:40:05;;;;;;;;;;;8.20;96.70;;;;;;5015294;28;19933;-84
2022/04/03 13:42:31;;;;;;;;;;;8.20;96.60;;;;;;5028812;28;19925;-85
2022/04/03 13:44:58;;;;;;;;;;;8.00;96.40;;;;;;5006790;28;19932;-80
2022/04/03 13:47:24;;;;;;;;;;;7.90;96.70;;;;;;5005277;28;19930;-81
2022/04/03 13:49:51;;;;;;;;;;;7.90;97.40;;;;;;5003757;28;20188;-81
2022/04/03 13:52:18;;;;;;;;;;;7.80;98.30;;;;;;5025112;28;19971;-78
2022/04/03 13:54:45;;;;;;;;;;;7.90;98.90;;;;;;5017011;28;19930;-79
2022/04/03 13:57:11;;;;;;;;;;;8.10;98.00;;;;;;5023110;28;19925;-79
2022/04/03 13:59:38;;;;;;;;;;;7.80;98.30;;;;;;4998013;28;19926;-80
2022/04/03 14:02:05;;;;;;;;;;;7.80;98.40;;;;;;5027446;28;19928;-79
2022/04/03 14:04:31;;;;;;;;;;;7.70;99.00;;;;;;5011986;28;19925;-82
2022/04/03 14:06:58;;;;;;;;;;;7.80;98.30;;;;;;5021535;28;19925;-79
2022/04/03 14:09:24;;;;;;;;;;;7.80;97.80;;;;;;5013794;28;19932;-79
2022/04/03 14:11:52;;;;;;;;;;;7.90;97.90;;;;;;5003032;28;19925;-79
2022/04/03 14:14:18;;;;;;;;;;;7.90;98.20;;;;;;5018328;28;19971;-80
2022/04/03 14:16:45;;;;;;;;;;;7.70;98.70;;;;;;5016942;28;19979;-80
2022/04/03 14:19:12;;;;;;;;;;;7.60;98.80;;;;;;5022968;28;20292;-81
2022/04/03 14:21:39;;;;;;;;;;;7.60;99.10;;;;;;5013647;28;19932;-79
2022/04/03 14:24:05;;;;;;;;;;;7.50;99.90;;;;;;5023743;28;19937;-80